createdAt,value
2023-01-10T00:01:05.355Z,8.75
2023-01-10T00:04:07.275Z,9.13
2023-01-10T00:07:09.113Z,9.09
2023-01-10T00:10:11.135Z,9.57
2023-01-10T00:13:25.299Z,8.86
2023-01-10T00:16:27.215Z,8.56
2023-01-10T00:19:29.254Z,9.43
2023-01-10T00:22:31.196Z,8.90
2023-01-10T00:25:34.431Z,8.30
2023-01-10T00:28:36.742Z,8.76
2023-01-10T00:31:38.602Z,8.83
2023-01-10T00:34:40.548Z,8.20
2023-01-10T00:37:42.337Z,8.14
2023-01-10T00:40:44.528Z,7.78
2023-01-10T00:43:58.801Z,7.69
2023-01-10T00:47:00.758Z,7.99
2023-01-10T00:50:04.553Z,8.49
2023-01-10T00:53:06.463Z,8.23
2023-01-10T00:56:08.427Z,8.81
2023-01-10T00:59:10.303Z,8.36
2023-01-10T01:02:12.199Z,7.68
2023-01-10T01:05:14.179Z,7.64
2023-01-10T01:08:16.719Z,7.48
2023-01-10T01:11:18.623Z,7.64
2023-01-10T01:14:20.599Z,8.37
2023-01-10T01:17:22.481Z,7.87
2023-01-10T01:20:24.351Z,7.57
2023-01-10T01:23:26.259Z,7.76
2023-01-10T01:26:28.259Z,7.54
2023-01-10T01:29:42.267Z,7.72
2023-01-10T01:32:45.005Z,8.15
2023-01-10T01:35:47.832Z,8.35
2023-01-10T01:38:49.627Z,8.18
2023-01-10T01:41:57.520Z,7.91
2023-01-10T01:45:22.704Z,7.58
2023-01-10T01:48:27.394Z,8.09
2023-01-10T01:51:29.278Z,7.75
2023-01-10T01:54:31.287Z,7.68
2023-01-10T01:57:33.330Z,8.01
2023-01-10T02:00:35.562Z,7.93
2023-01-10T02:03:37.595Z,7.82
2023-01-10T02:06:39.483Z,8.17
2023-01-10T02:09:42.875Z,8.11
2023-01-10T02:12:45.360Z,7.94
2023-01-10T02:15:47.324Z,7.88
2023-01-10T02:18:49.134Z,7.97
2023-01-10T02:21:50.964Z,8.02
2023-01-10T02:25:01.864Z,8.27
2023-01-10T02:28:22.324Z,8.60
2023-01-10T02:31:34.907Z,8.87
2023-01-10T02:34:47.039Z,8.59
2023-01-10T02:38:21.301Z,8.56
2023-01-10T02:41:28.427Z,8.08
2023-01-10T02:44:30.306Z,8.49
2023-01-10T02:47:38.930Z,8.36
2023-01-10T02:50:44.218Z,7.77
2023-01-10T02:53:51.072Z,7.82
2023-01-10T02:57:01.842Z,8.59
2023-01-10T03:00:24.660Z,8.18
2023-01-10T03:03:33.371Z,8.01
2023-01-10T03:06:41.126Z,8.43
2023-01-10T03:09:48.927Z,7.66
2023-01-10T03:12:52.642Z,7.64
2023-01-10T03:15:55.005Z,8.54
2023-01-10T03:19:11.296Z,8.49
2023-01-10T03:22:13.337Z,8.94
2023-01-10T03:25:15.835Z,8.40
2023-01-10T03:28:22.354Z,8.49
2023-01-10T03:31:44.502Z,8.61
2023-01-10T03:34:46.326Z,8.74
2023-01-10T03:37:54.275Z,8.88
2023-01-10T03:40:56.135Z,9.35
2023-01-10T03:44:16.971Z,8.88
2023-01-10T03:47:30.984Z,8.80
2023-01-10T03:50:32.876Z,9.00
2023-01-10T03:53:34.785Z,8.11
2023-01-10T03:56:46.564Z,8.07
2023-01-10T03:59:49.031Z,8.27
2023-01-10T04:02:50.897Z,8.68
2023-01-10T04:05:52.742Z,9.01
2023-01-10T04:08:54.622Z,8.63
2023-01-10T04:11:56.495Z,8.68
2023-01-10T04:14:58.351Z,8.54
2023-01-10T04:18:00.189Z,8.55
2023-01-10T04:21:02.162Z,7.92
2023-01-10T04:24:04.004Z,8.04
2023-01-10T04:27:06.015Z,7.62
2023-01-10T04:30:08.206Z,8.24
2023-01-10T04:33:11.789Z,7.85
2023-01-10T04:36:13.680Z,8.59
2023-01-10T04:39:15.792Z,8.13
2023-01-10T04:42:18.117Z,8.11
2023-01-10T04:45:21.877Z,8.13
2023-01-10T04:48:23.744Z,7.73
2023-01-10T04:51:26.116Z,7.93
2023-01-10T04:54:27.997Z,8.12
2023-01-10T04:57:29.871Z,7.45
2023-01-10T05:00:31.692Z,7.40
2023-01-10T05:03:33.721Z,7.49
2023-01-10T05:06:35.715Z,7.43
2023-01-10T05:09:37.547Z,8.10
2023-01-10T05:12:39.591Z,7.61
2023-01-10T05:15:41.479Z,8.62
2023-01-10T05:18:43.513Z,7.99
2023-01-10T05:21:45.391Z,7.36
2023-01-10T05:24:47.276Z,8.01
2023-01-10T05:27:49.221Z,7.43
2023-01-10T05:30:51.124Z,7.49
2023-01-10T05:33:53.160Z,7.73
2023-01-10T05:36:55.057Z,8.35
2023-01-10T05:39:56.861Z,7.62
2023-01-10T05:42:58.755Z,7.90
2023-01-10T05:46:00.607Z,8.05
2023-01-10T05:49:02.511Z,8.13
2023-01-10T05:52:04.411Z,7.83
2023-01-10T05:55:06.485Z,8.64
2023-01-10T05:58:11.136Z,8.49
2023-01-10T06:01:13.249Z,7.85
2023-01-10T06:04:15.233Z,8.21
2023-01-10T06:07:17.195Z,7.54
2023-01-10T06:10:19.128Z,7.52
2023-01-10T06:13:21.099Z,8.48
2023-01-10T06:16:23.010Z,8.00
2023-01-10T06:19:24.884Z,8.18
2023-01-10T06:22:28.109Z,7.91
2023-01-10T06:25:30.262Z,7.17
2023-01-10T06:28:32.332Z,6.97
2023-01-10T06:31:34.582Z,7.42
2023-01-10T06:34:36.508Z,7.22
2023-01-10T06:37:38.563Z,7.56
2023-01-10T06:40:41.339Z,7.13
2023-01-10T06:43:45.505Z,7.18
2023-01-10T06:46:47.481Z,6.76
2023-01-10T06:49:49.375Z,7.20
2023-01-10T06:53:01.965Z,6.83
2023-01-10T06:56:06.281Z,7.44
2023-01-10T06:59:08.789Z,7.19
2023-01-10T07:02:11.753Z,7.27
2023-01-10T07:05:13.690Z,7.22
2023-01-10T07:08:15.804Z,7.40
2023-01-10T07:11:18.048Z,6.67
2023-01-10T07:14:20.111Z,7.27
2023-01-10T07:17:22.021Z,7.23
2023-01-10T07:20:24.331Z,7.39
2023-01-10T07:23:27.081Z,6.71
2023-01-10T07:26:29.883Z,6.92
2023-01-10T07:29:31.992Z,7.10
2023-01-10T07:32:34.173Z,7.30
2023-01-10T07:35:36.742Z,7.00
2023-01-10T07:38:38.762Z,7.66
2023-01-10T07:41:40.830Z,7.95
2023-01-10T07:44:42.803Z,7.93
2023-01-10T07:47:45.232Z,6.82
2023-01-10T07:50:47.327Z,7.21
2023-01-10T07:53:51.357Z,6.56
2023-01-10T07:56:53.388Z,6.72
2023-01-10T07:59:55.301Z,6.65
2023-01-10T08:02:57.671Z,6.86
2023-01-10T08:06:06.912Z,6.68
2023-01-10T08:09:08.944Z,6.69
2023-01-10T08:12:10.976Z,6.62
2023-01-10T08:15:12.881Z,6.57
2023-01-10T08:18:14.870Z,6.79
2023-01-10T08:21:16.798Z,6.15
2023-01-10T08:24:18.691Z,6.42
2023-01-10T08:27:20.601Z,6.23
2023-01-10T08:30:23.264Z,6.71
2023-01-10T08:33:25.487Z,6.43
2023-01-10T08:36:29.169Z,7.19
2023-01-10T08:39:32.279Z,7.14
2023-01-10T08:42:34.940Z,6.84
2023-01-10T08:45:37.647Z,6.77
2023-01-10T08:48:39.639Z,6.77
2023-01-10T08:51:41.461Z,6.90
2023-01-10T08:54:43.704Z,6.68
2023-01-10T08:57:46.066Z,6.57
2023-01-10T09:00:49.694Z,6.02
2023-01-10T09:03:52.105Z,6.49
2023-01-10T09:06:54.565Z,6.26
2023-01-10T09:09:56.485Z,6.40
2023-01-10T09:13:02.167Z,6.65
2023-01-10T09:16:04.557Z,6.87
2023-01-10T09:19:07.330Z,6.43
2023-01-10T09:22:09.438Z,6.64
2023-01-10T09:25:11.414Z,5.99
2023-01-10T09:28:13.715Z,6.17
2023-01-10T09:31:15.635Z,6.06
2023-01-10T09:34:17.590Z,6.66
2023-01-10T09:37:19.721Z,6.34
2023-01-10T09:40:25.568Z,6.13
2023-01-10T09:43:45.624Z,6.27
2023-01-10T09:47:00.933Z,6.44
2023-01-10T09:50:20.924Z,6.36
2023-01-10T09:53:25.090Z,6.21
2023-01-10T09:56:27.726Z,5.65
2023-01-10T09:59:36.066Z,6.03
2023-01-10T10:02:42.433Z,6.35
2023-01-10T10:05:45.381Z,6.08
2023-01-10T10:08:47.255Z,5.99
2023-01-10T10:11:58.821Z,5.88
2023-01-10T10:15:03.862Z,6.43
2023-01-10T10:18:06.182Z,6.29
2023-01-10T10:21:17.866Z,6.39
2023-01-10T10:24:36.410Z,6.51
2023-01-10T10:27:47.984Z,6.34
2023-01-10T10:31:15.031Z,6.26
2023-01-10T10:34:49.658Z,6.06
2023-01-10T10:37:52.484Z,6.55
2023-01-10T10:40:54.426Z,6.29
2023-01-10T10:43:56.590Z,6.20
2023-01-10T10:46:59.461Z,5.78
2023-01-10T10:50:16.035Z,6.18
2023-01-10T10:53:19.345Z,6.18
2023-01-10T10:56:21.964Z,6.06
2023-01-10T10:59:24.016Z,6.03
2023-01-10T11:02:33.117Z,6.51
2023-01-10T11:05:42.399Z,6.11
2023-01-10T11:08:46.031Z,6.70
2023-01-10T11:11:51.151Z,6.41
2023-01-10T11:14:54.059Z,5.97
2023-01-10T11:18:04.490Z,6.36
2023-01-10T11:21:07.272Z,5.77
2023-01-10T11:24:32.480Z,6.05
2023-01-10T11:27:37.035Z,6.19
2023-01-10T11:30:39.111Z,6.36
2023-01-10T11:33:41.174Z,6.26
2023-01-10T11:37:02.438Z,6.47
2023-01-10T11:40:27.835Z,5.90
2023-01-10T11:43:37.575Z,6.38
2023-01-10T11:46:40.079Z,6.71
2023-01-10T11:49:43.830Z,6.13
2023-01-10T11:52:45.909Z,6.36
2023-01-10T11:55:47.930Z,6.70
2023-01-10T11:58:50.267Z,6.61
2023-01-10T12:02:10.624Z,7.14
2023-01-10T12:05:20.013Z,6.64
2023-01-10T12:08:26.541Z,6.22
2023-01-10T12:11:32.467Z,6.89
2023-01-10T12:14:34.684Z,6.89
2023-01-10T12:17:37.187Z,6.24
2023-01-10T12:20:45.192Z,6.97
2023-01-10T12:23:47.786Z,6.40
2023-01-10T12:26:52.299Z,6.59
2023-01-10T12:29:58.659Z,6.64
2023-01-10T12:33:01.220Z,6.45
2023-01-10T12:36:22.246Z,6.58
2023-01-10T12:39:30.411Z,7.16
2023-01-10T12:42:51.204Z,7.09
2023-01-10T12:45:57.205Z,7.24
2023-01-10T12:49:02.482Z,7.29
2023-01-10T12:52:08.290Z,6.31
2023-01-10T12:55:17.249Z,6.75
2023-01-10T12:58:36.365Z,6.47
2023-01-10T13:01:40.675Z,6.36
2023-01-10T13:04:42.907Z,6.39
2023-01-10T13:07:44.791Z,6.90
2023-01-10T13:10:47.811Z,7.03
2023-01-10T13:13:52.448Z,6.94
2023-01-10T13:17:23.941Z,6.43
2023-01-10T13:20:27.189Z,6.83
2023-01-10T13:23:30.803Z,6.93
2023-01-10T13:26:55.885Z,7.16
2023-01-10T13:29:57.727Z,6.65
2023-01-10T13:33:01.255Z,7.33
2023-01-10T13:36:12.881Z,6.86
2023-01-10T13:39:25.161Z,7.32
2023-01-10T13:42:49.856Z,7.46
2023-01-10T13:46:08.113Z,6.53
2023-01-10T13:49:10.043Z,6.72
2023-01-10T13:52:28.643Z,7.25
2023-01-10T13:55:34.770Z,6.91
2023-01-10T13:58:59.922Z,6.82
2023-01-10T14:02:20.682Z,7.04
2023-01-10T14:05:22.776Z,7.17
2023-01-10T14:08:24.729Z,6.76
2023-01-10T14:11:27.624Z,7.08
2023-01-10T14:14:34.024Z,7.14
2023-01-10T14:17:36.199Z,7.05
2023-01-10T14:20:38.537Z,7.07
2023-01-10T14:23:41.418Z,7.40
2023-01-10T14:26:44.320Z,7.23
2023-01-10T14:29:59.283Z,7.42
2023-01-10T14:33:08.274Z,7.18
2023-01-10T14:36:14.522Z,7.31
2023-01-10T14:39:16.613Z,7.20
2023-01-10T14:42:18.522Z,6.97
2023-01-10T14:45:24.055Z,7.10
2023-01-10T14:48:33.386Z,7.42
2023-01-10T14:51:35.309Z,7.39
2023-01-10T14:54:37.236Z,6.82
2023-01-10T14:57:39.142Z,7.24
2023-01-10T15:00:43.819Z,6.61
2023-01-10T15:03:46.306Z,6.75
2023-01-10T15:06:52.059Z,7.06
2023-01-10T15:09:56.714Z,6.69
2023-01-10T15:13:00.454Z,7.44
2023-01-10T15:16:02.553Z,6.91
2023-01-10T15:19:04.673Z,7.36
2023-01-10T15:22:16.613Z,7.33
2023-01-10T15:25:18.531Z,7.37
2023-01-10T15:28:20.737Z,7.35
2023-01-10T15:31:22.654Z,7.27
2023-01-10T15:34:27.031Z,7.23
2023-01-10T15:37:35.271Z,7.18
2023-01-10T15:40:37.793Z,6.64
2023-01-10T15:43:40.355Z,6.80
2023-01-10T15:46:53.990Z,6.97
2023-01-10T15:49:55.942Z,7.18
2023-01-10T15:53:01.616Z,7.31
2023-01-10T15:56:13.583Z,6.97
2023-01-10T15:59:27.917Z,6.70
2023-01-10T16:02:30.988Z,6.50
2023-01-10T16:05:32.997Z,6.59
2023-01-10T16:08:35.384Z,6.41
2023-01-10T16:12:05.778Z,6.55
2023-01-10T16:15:26.541Z,6.91
2023-01-10T16:18:28.732Z,6.64
2023-01-10T16:21:39.425Z,6.87
2023-01-10T16:24:41.380Z,6.58
2023-01-10T16:27:43.466Z,7.14
2023-01-10T16:30:46.760Z,6.94
2023-01-10T16:33:49.286Z,7.27
2023-01-10T16:36:51.366Z,7.49
2023-01-10T16:39:53.265Z,7.91
2023-01-10T16:43:14.258Z,7.18
2023-01-10T16:46:16.298Z,6.60
2023-01-10T16:49:18.283Z,6.71
2023-01-10T16:52:20.168Z,7.42
2023-01-10T16:55:26.487Z,7.26
2023-01-10T16:58:28.409Z,7.28
2023-01-10T17:01:38.095Z,6.88
2023-01-10T17:04:40.239Z,6.77
2023-01-10T17:07:42.159Z,6.73
2023-01-10T17:10:44.079Z,7.09
2023-01-10T17:13:46.035Z,6.84
2023-01-10T17:16:48.677Z,7.29
2023-01-10T17:19:50.644Z,7.54
2023-01-10T17:22:52.538Z,7.47
2023-01-10T17:26:01.350Z,7.06
2023-01-10T17:29:03.207Z,6.67
2023-01-10T17:32:05.451Z,7.23
2023-01-10T17:35:08.002Z,7.65
2023-01-10T17:38:10.644Z,6.73
2023-01-10T17:41:12.619Z,7.39
2023-01-10T17:44:14.525Z,6.80
2023-01-10T17:47:16.487Z,7.21
2023-01-10T17:50:19.136Z,6.85
2023-01-10T17:53:21.115Z,6.77
2023-01-10T17:56:23.096Z,7.32
2023-01-10T17:59:24.997Z,6.83
2023-01-10T18:02:27.209Z,7.28
2023-01-10T18:05:29.269Z,6.96
2023-01-10T18:08:31.241Z,7.67
2023-01-10T18:11:33.764Z,7.57
2023-01-10T18:14:38.731Z,6.89
2023-01-10T18:17:40.603Z,6.99
2023-01-10T18:20:43.019Z,6.87
2023-01-10T18:23:45.136Z,7.02
2023-01-10T18:26:47.285Z,7.00
2023-01-10T18:29:52.555Z,7.00
2023-01-10T18:32:54.532Z,7.03
2023-01-10T18:35:57.579Z,7.31
2023-01-10T18:38:59.577Z,7.33
2023-01-10T18:42:01.500Z,7.09
2023-01-10T18:45:04.205Z,6.89
2023-01-10T18:48:06.463Z,6.64
2023-01-10T18:51:10.102Z,7.26
2023-01-10T18:54:11.976Z,7.20
2023-01-10T18:57:14.225Z,7.50
2023-01-10T19:00:16.492Z,7.28
2023-01-10T19:03:18.382Z,7.23
2023-01-10T19:06:22.651Z,7.36
2023-01-10T19:09:24.612Z,6.95
2023-01-10T19:12:26.879Z,6.78
2023-01-10T19:15:28.885Z,7.51
2023-01-10T19:18:30.730Z,6.90
2023-01-10T19:21:33.072Z,7.32
2023-01-10T19:24:37.741Z,7.16
2023-01-10T19:27:39.637Z,6.96
2023-01-10T19:30:41.692Z,6.98
2023-01-10T19:33:44.244Z,7.25
2023-01-10T19:36:46.116Z,7.28
2023-01-10T19:39:48.345Z,6.94
2023-01-10T19:42:50.188Z,7.18
2023-01-10T19:45:52.604Z,7.04
2023-01-10T19:48:58.030Z,7.68
2023-01-10T19:51:59.962Z,7.53
2023-01-10T19:55:01.923Z,7.63
2023-01-10T19:58:03.934Z,7.59
2023-01-10T20:01:13.111Z,8.02
2023-01-10T20:04:15.335Z,7.56
2023-01-10T20:07:18.720Z,7.36
2023-01-10T20:10:20.859Z,7.14
2023-01-10T20:13:22.721Z,7.29
2023-01-10T20:16:24.686Z,7.50
2023-01-10T20:19:26.827Z,7.55
2023-01-10T20:22:28.852Z,7.32
2023-01-10T20:25:30.687Z,6.89
2023-01-10T20:28:33.188Z,6.95
2023-01-10T20:31:35.172Z,7.20
2023-01-10T20:34:37.915Z,7.42
2023-01-10T20:37:39.716Z,7.11
2023-01-10T20:40:41.589Z,7.27
2023-01-10T20:43:44.129Z,7.33
2023-01-10T20:46:46.092Z,7.37
2023-01-10T20:49:47.967Z,7.09
2023-01-10T20:52:49.899Z,7.11
2023-01-10T20:55:59.719Z,7.32
2023-01-10T20:59:02.147Z,7.09
2023-01-10T21:02:04.106Z,7.23
2023-01-10T21:05:06.084Z,7.37
2023-01-10T21:08:07.905Z,7.26
2023-01-10T21:11:10.876Z,7.35
2023-01-10T21:14:13.262Z,7.39
2023-01-10T21:17:15.287Z,7.02
2023-01-10T21:20:17.244Z,7.12
2023-01-10T21:23:20.427Z,7.28
2023-01-10T21:26:22.480Z,6.77
2023-01-10T21:29:24.372Z,7.28
2023-01-10T21:32:26.325Z,7.22
2023-01-10T21:35:28.134Z,6.85
2023-01-10T21:38:30.146Z,7.14
2023-01-10T21:41:50.826Z,7.84
2023-01-10T21:44:52.673Z,7.18
2023-01-10T21:47:54.558Z,7.19
2023-01-10T21:50:57.740Z,6.75
2023-01-10T21:54:00.022Z,6.43
2023-01-10T21:57:02.029Z,6.88
2023-01-10T22:00:04.358Z,6.81
2023-01-10T22:03:06.254Z,6.54
2023-01-10T22:06:08.268Z,6.98
2023-01-10T22:09:11.033Z,6.67
2023-01-10T22:12:12.885Z,6.28
2023-01-10T22:15:14.791Z,6.81
2023-01-10T22:18:16.727Z,6.69
2023-01-10T22:21:19.877Z,6.10
2023-01-10T22:24:21.769Z,6.31
2023-01-10T22:27:23.594Z,6.47
2023-01-10T22:30:25.485Z,6.51
2023-01-10T22:33:31.241Z,6.24
2023-01-10T22:36:33.421Z,6.15
2023-01-10T22:39:35.247Z,6.16
2023-01-10T22:42:37.131Z,6.07
2023-01-10T22:45:42.731Z,6.11
2023-01-10T22:48:44.792Z,6.22
2023-01-10T22:51:46.816Z,6.23
2023-01-10T22:54:48.690Z,6.19
2023-01-10T22:57:50.551Z,6.05
2023-01-10T23:00:52.384Z,5.83
2023-01-10T23:03:54.355Z,5.77
2023-01-10T23:06:56.886Z,5.88
2023-01-10T23:09:58.925Z,5.82
2023-01-10T23:13:02.264Z,5.65
2023-01-10T23:16:05.533Z,5.62
2023-01-10T23:19:07.475Z,6.11
2023-01-10T23:22:09.444Z,5.85
2023-01-10T23:25:11.290Z,6.13
2023-01-10T23:28:13.212Z,5.59
2023-01-10T23:31:16.258Z,6.07
2023-01-10T23:34:18.165Z,5.68
2023-01-10T23:37:19.959Z,5.66
2023-01-10T23:40:21.833Z,5.64
2023-01-10T23:43:23.886Z,5.50
2023-01-10T23:46:25.840Z,5.55
2023-01-10T23:49:27.735Z,5.30
2023-01-10T23:52:29.726Z,6.16
2023-01-10T23:55:32.102Z,6.14
2023-01-10T23:58:34.165Z,5.84
